Terminal Aerodrome Forecast
Issued by NWS

Home | Current Version | Previous Version | Text Only | Print | Product List | Glossary On
Versions: 1 2 3 4 5 6 7 8 9 10 11 12 13 14 15 16 17 18 19 20 21 22 23 24 25 26 27 28 29 30 31 32 33 34 35 36
000
FTUS43 KLOT 312200 AAB
TAFORD
TAF AMD
KORD 312202Z 3122/0124 36023G36KT P6SM VCSH SCT025 BKN045
     FM010000 36020G32KT P6SM VCSH SCT025 BKN035
     FM010200 36017G29KT 4SM -SHSN OVC022
     FM010600 36014G20KT 5SM -SHSN OVC020
     FM011400 01012G18KT P6SM OVC020
     FM011700 02011KT P6SM BKN025=

USA.gov is the U.S. government's official web portal to all federal, state and local government web resources and services.